Terminal Aerodrome Forecast
Issued by NWS

Home | Current Version | Previous Version | Text Only | Print | Product List | Glossary On
Versions: 1 2 3 4 5 6 7 8 9 10 11 12 13 14 15 16 17 18 19 20 21 22 23
000
FTUS41 KPBZ 240500
TAFDUJ
TAF
KDUJ 240538Z 2406/2506 13013G20KT 3SM -RA BR OVC008
      TEMPO 2407/2409 16012G20KT P6SM NSW SCT035
     FM240900 18013KT P6SM -SHRA OVC007
     FM241600 18013G29KT P6SM BKN050
     FM241800 20020G45KT P6SM BKN050
     FM242300 23014G30KT P6SM BKN050=

USA.gov is the U.S. government's official web portal to all federal, state and local government web resources and services.